sensor_id;sensor_type;location;lat;lon;timestamp;P1;durP1;ratioP1;P2;durP2;ratioP2
23404;SDS011;11875;49.356;2.718;2023-09-30T00:00:59;4.38;;;2.22;;
23404;SDS011;11875;49.356;2.718;2023-09-30T00:03:25;7.60;;;2.10;;
23404;SDS011;11875;49.356;2.718;2023-09-30T00:05:51;6.20;;;1.95;;
23404;SDS011;11875;49.356;2.718;2023-09-30T00:08:16;8.38;;;2.17;;
23404;SDS011;11875;49.356;2.718;2023-09-30T00:10:42;4.95;;;2.13;;
23404;SDS011;11875;49.356;2.718;2023-09-30T00:13:08;3.08;;;1.73;;
23404;SDS011;11875;49.356;2.718;2023-09-30T00:15:33;2.88;;;1.88;;
23404;SDS011;11875;49.356;2.718;2023-09-30T00:17:59;4.82;;;1.80;;
23404;SDS011;11875;49.356;2.718;2023-09-30T00:20:26;5.85;;;2.20;;
23404;SDS011;11875;49.356;2.718;2023-09-30T00:22:55;5.05;;;1.85;;
23404;SDS011;11875;49.356;2.718;2023-09-30T00:25:20;6.45;;;2.22;;
23404;SDS011;11875;49.356;2.718;2023-09-30T00:27:46;6.43;;;1.92;;
23404;SDS011;11875;49.356;2.718;2023-09-30T00:30:12;5.85;;;1.80;;
23404;SDS011;11875;49.356;2.718;2023-09-30T00:32:38;5.95;;;2.03;;
23404;SDS011;11875;49.356;2.718;2023-09-30T00:35:04;5.45;;;1.92;;
23404;SDS011;11875;49.356;2.718;2023-09-30T00:37:39;5.38;;;2.08;;
23404;SDS011;11875;49.356;2.718;2023-09-30T00:40:06;6.18;;;2.22;;
23404;SDS011;11875;49.356;2.718;2023-09-30T00:42:36;5.40;;;1.87;;
23404;SDS011;11875;49.356;2.718;2023-09-30T00:45:03;3.70;;;1.80;;
23404;SDS011;11875;49.356;2.718;2023-09-30T00:47:30;10.90;;;1.90;;
23404;SDS011;11875;49.356;2.718;2023-09-30T00:49:56;11.15;;;1.95;;
23404;SDS011;11875;49.356;2.718;2023-09-30T00:52:21;7.50;;;1.77;;
23404;SDS011;11875;49.356;2.718;2023-09-30T00:54:47;6.10;;;1.90;;
23404;SDS011;11875;49.356;2.718;2023-09-30T00:57:15;5.07;;;1.73;;
23404;SDS011;11875;49.356;2.718;2023-09-30T00:59:41;5.00;;;2.00;;
23404;SDS011;11875;49.356;2.718;2023-09-30T01:02:07;6.53;;;2.22;;
23404;SDS011;11875;49.356;2.718;2023-09-30T01:04:33;5.07;;;1.87;;
23404;SDS011;11875;49.356;2.718;2023-09-30T01:06:59;7.80;;;2.45;;
23404;SDS011;11875;49.356;2.718;2023-09-30T01:09:24;6.17;;;1.80;;
23404;SDS011;11875;49.356;2.718;2023-09-30T01:11:50;7.70;;;2.08;;
23404;SDS011;11875;49.356;2.718;2023-09-30T01:14:29;5.70;;;1.75;;
23404;SDS011;11875;49.356;2.718;2023-09-30T01:16:56;6.28;;;1.75;;
23404;SDS011;11875;49.356;2.718;2023-09-30T01:19:23;5.85;;;2.20;;
23404;SDS011;11875;49.356;2.718;2023-09-30T01:21:56;3.67;;;2.00;;
23404;SDS011;11875;49.356;2.718;2023-09-30T01:24:28;6.53;;;1.92;;
23404;SDS011;11875;49.356;2.718;2023-09-30T01:26:54;11.35;;;2.63;;
23404;SDS011;11875;49.356;2.718;2023-09-30T01:29:20;14.70;;;3.72;;
23404;SDS011;11875;49.356;2.718;2023-09-30T01:31:47;9.10;;;2.50;;
23404;SDS011;11875;49.356;2.718;2023-09-30T01:34:14;17.40;;;2.97;;
23404;SDS011;11875;49.356;2.718;2023-09-30T01:36:41;10.53;;;3.33;;
23404;SDS011;11875;49.356;2.718;2023-09-30T01:39:08;8.47;;;3.00;;
23404;SDS011;11875;49.356;2.718;2023-09-30T01:41:37;10.48;;;2.55;;
23404;SDS011;11875;49.356;2.718;2023-09-30T01:44:04;9.30;;;2.67;;
23404;SDS011;11875;49.356;2.718;2023-09-30T01:46:30;10.53;;;2.97;;
23404;SDS011;11875;49.356;2.718;2023-09-30T01:48:55;8.57;;;2.87;;
23404;SDS011;11875;49.356;2.718;2023-09-30T01:51:21;9.80;;;2.80;;
23404;SDS011;11875;49.356;2.718;2023-09-30T01:53:50;9.55;;;2.95;;
23404;SDS011;11875;49.356;2.718;2023-09-30T01:56:15;10.13;;;2.72;;
23404;SDS011;11875;49.356;2.718;2023-09-30T01:58:41;13.70;;;3.37;;
23404;SDS011;11875;49.356;2.718;2023-09-30T02:01:06;11.53;;;3.33;;
23404;SDS011;11875;49.356;2.718;2023-09-30T02:03:33;8.93;;;3.37;;
23404;SDS011;11875;49.356;2.718;2023-09-30T02:05:58;11.07;;;3.73;;
23404;SDS011;11875;49.356;2.718;2023-09-30T02:08:24;8.40;;;2.90;;
23404;SDS011;11875;49.356;2.718;2023-09-30T02:10:50;9.00;;;2.53;;
23404;SDS011;11875;49.356;2.718;2023-09-30T02:13:19;9.60;;;3.23;;
23404;SDS011;11875;49.356;2.718;2023-09-30T02:15:45;7.70;;;2.67;;
23404;SDS011;11875;49.356;2.718;2023-09-30T02:18:12;10.53;;;2.83;;
23404;SDS011;11875;49.356;2.718;2023-09-30T02:20:38;12.57;;;2.90;;
23404;SDS011;11875;49.356;2.718;2023-09-30T02:23:08;14.57;;;2.90;;
23404;SDS011;11875;49.356;2.718;2023-09-30T02:25:38;6.37;;;2.60;;
23404;SDS011;11875;49.356;2.718;2023-09-30T02:28:05;6.93;;;2.63;;
23404;SDS011;11875;49.356;2.718;2023-09-30T02:30:33;6.23;;;2.20;;
23404;SDS011;11875;49.356;2.718;2023-09-30T02:32:59;7.43;;;2.70;;
23404;SDS011;11875;49.356;2.718;2023-09-30T02:35:25;9.73;;;2.80;;
23404;SDS011;11875;49.356;2.718;2023-09-30T02:37:51;9.50;;;2.90;;
23404;SDS011;11875;49.356;2.718;2023-09-30T02:40:17;7.93;;;2.67;;
23404;SDS011;11875;49.356;2.718;2023-09-30T02:42:44;11.97;;;3.13;;
23404;SDS011;11875;49.356;2.718;2023-09-30T02:45:11;9.37;;;2.87;;
23404;SDS011;11875;49.356;2.718;2023-09-30T02:47:38;7.63;;;2.63;;
23404;SDS011;11875;49.356;2.718;2023-09-30T02:50:08;4.73;;;2.17;;
23404;SDS011;11875;49.356;2.718;2023-09-30T02:52:36;5.67;;;2.43;;
23404;SDS011;11875;49.356;2.718;2023-09-30T02:55:04;7.57;;;2.80;;
23404;SDS011;11875;49.356;2.718;2023-09-30T02:57:30;6.53;;;2.50;;
23404;SDS011;11875;49.356;2.718;2023-09-30T02:59:56;11.07;;;2.13;;
23404;SDS011;11875;49.356;2.718;2023-09-30T03:02:24;9.13;;;2.67;;
23404;SDS011;11875;49.356;2.718;2023-09-30T03:04:49;8.23;;;2.73;;
23404;SDS011;11875;49.356;2.718;2023-09-30T03:07:16;7.07;;;2.40;;
23404;SDS011;11875;49.356;2.718;2023-09-30T03:09:44;6.40;;;2.63;;
23404;SDS011;11875;49.356;2.718;2023-09-30T03:12:10;8.07;;;2.67;;
23404;SDS011;11875;49.356;2.718;2023-09-30T03:14:37;6.97;;;2.63;;
23404;SDS011;11875;49.356;2.718;2023-09-30T03:17:02;9.67;;;2.70;;
23404;SDS011;11875;49.356;2.718;2023-09-30T03:19:28;5.73;;;2.30;;
23404;SDS011;11875;49.356;2.718;2023-09-30T03:21:54;6.67;;;2.50;;
23404;SDS011;11875;49.356;2.718;2023-09-30T03:24:19;4.67;;;2.33;;
23404;SDS011;11875;49.356;2.718;2023-09-30T03:26:46;5.63;;;2.63;;
23404;SDS011;11875;49.356;2.718;2023-09-30T03:29:12;3.67;;;1.93;;
23404;SDS011;11875;49.356;2.718;2023-09-30T03:31:37;5.63;;;2.03;;
23404;SDS011;11875;49.356;2.718;2023-09-30T03:34:03;5.00;;;2.43;;
23404;SDS011;11875;49.356;2.718;2023-09-30T03:36:29;11.13;;;2.50;;
23404;SDS011;11875;49.356;2.718;2023-09-30T03:38:55;5.57;;;2.90;;
23404;SDS011;11875;49.356;2.718;2023-09-30T03:41:21;6.37;;;2.53;;
23404;SDS011;11875;49.356;2.718;2023-09-30T03:43:47;9.00;;;3.20;;
23404;SDS011;11875;49.356;2.718;2023-09-30T03:46:14;9.33;;;3.10;;
23404;SDS011;11875;49.356;2.718;2023-09-30T03:48:40;4.60;;;2.17;;
23404;SDS011;11875;49.356;2.718;2023-09-30T03:51:14;4.53;;;2.43;;
23404;SDS011;11875;49.356;2.718;2023-09-30T03:53:40;7.67;;;2.20;;
23404;SDS011;11875;49.356;2.718;2023-09-30T03:56:07;5.20;;;2.73;;
23404;SDS011;11875;49.356;2.718;2023-09-30T03:58:32;5.57;;;2.93;;
23404;SDS011;11875;49.356;2.718;2023-09-30T04:00:59;5.07;;;2.33;;
23404;SDS011;11875;49.356;2.718;2023-09-30T04:03:29;5.37;;;2.50;;
23404;SDS011;11875;49.356;2.718;2023-09-30T04:05:57;4.93;;;2.70;;
23404;SDS011;11875;49.356;2.718;2023-09-30T04:08:23;6.90;;;2.63;;
23404;SDS011;11875;49.356;2.718;2023-09-30T04:10:48;8.00;;;2.70;;
23404;SDS011;11875;49.356;2.718;2023-09-30T04:13:14;5.17;;;2.47;;
23404;SDS011;11875;49.356;2.718;2023-09-30T04:15:40;6.43;;;2.43;;
23404;SDS011;11875;49.356;2.718;2023-09-30T04:18:05;4.60;;;2.10;;
23404;SDS011;11875;49.356;2.718;2023-09-30T04:20:31;6.00;;;2.23;;
23404;SDS011;11875;49.356;2.718;2023-09-30T04:22:57;3.73;;;2.30;;
23404;SDS011;11875;49.356;2.718;2023-09-30T04:25:23;8.03;;;3.10;;
23404;SDS011;11875;49.356;2.718;2023-09-30T04:27:52;15.43;;;4.53;;
23404;SDS011;11875;49.356;2.718;2023-09-30T04:30:18;18.80;;;6.37;;
23404;SDS011;11875;49.356;2.718;2023-09-30T04:32:44;20.27;;;7.77;;
23404;SDS011;11875;49.356;2.718;2023-09-30T04:35:10;10.70;;;4.23;;
23404;SDS011;11875;49.356;2.718;2023-09-30T04:37:36;6.33;;;3.33;;
23404;SDS011;11875;49.356;2.718;2023-09-30T04:40:06;5.20;;;2.73;;
23404;SDS011;11875;49.356;2.718;2023-09-30T04:42:40;5.77;;;2.47;;
23404;SDS011;11875;49.356;2.718;2023-09-30T04:45:10;9.20;;;3.43;;
23404;SDS011;11875;49.356;2.718;2023-09-30T04:47:36;11.53;;;2.60;;
23404;SDS011;11875;49.356;2.718;2023-09-30T04:50:04;8.07;;;3.53;;
23404;SDS011;11875;49.356;2.718;2023-09-30T04:52:33;7.33;;;2.97;;
23404;SDS011;11875;49.356;2.718;2023-09-30T04:55:00;6.20;;;2.60;;
23404;SDS011;11875;49.356;2.718;2023-09-30T04:57:26;5.57;;;2.60;;
23404;SDS011;11875;49.356;2.718;2023-09-30T04:59:51;6.07;;;2.73;;
23404;SDS011;11875;49.356;2.718;2023-09-30T05:02:17;6.80;;;3.10;;
23404;SDS011;11875;49.356;2.718;2023-09-30T05:04:43;15.77;;;3.77;;
23404;SDS011;11875;49.356;2.718;2023-09-30T05:07:08;60.33;;;5.47;;
23404;SDS011;11875;49.356;2.718;2023-09-30T05:09:34;120.43;;;13.30;;
23404;SDS011;11875;49.356;2.718;2023-09-30T05:12:01;77.53;;;7.63;;
23404;SDS011;11875;49.356;2.718;2023-09-30T05:14:27;122.33;;;7.70;;
23404;SDS011;11875;49.356;2.718;2023-09-30T05:16:54;128.27;;;8.10;;
23404;SDS011;11875;49.356;2.718;2023-09-30T05:19:21;137.30;;;13.60;;
23404;SDS011;11875;49.356;2.718;2023-09-30T05:21:47;103.07;;;7.43;;
23404;SDS011;11875;49.356;2.718;2023-09-30T05:24:13;79.30;;;6.90;;
23404;SDS011;11875;49.356;2.718;2023-09-30T05:26:40;53.50;;;5.83;;
23404;SDS011;11875;49.356;2.718;2023-09-30T05:29:05;116.27;;;7.50;;
23404;SDS011;11875;49.356;2.718;2023-09-30T05:31:32;59.03;;;6.17;;
23404;SDS011;11875;49.356;2.718;2023-09-30T05:33:58;89.03;;;6.17;;
23404;SDS011;11875;49.356;2.718;2023-09-30T05:36:23;92.77;;;6.13;;
23404;SDS011;11875;49.356;2.718;2023-09-30T05:38:49;95.10;;;6.90;;
23404;SDS011;11875;49.356;2.718;2023-09-30T05:41:15;78.67;;;7.23;;
23404;SDS011;11875;49.356;2.718;2023-09-30T05:43:40;138.20;;;7.97;;
23404;SDS011;11875;49.356;2.718;2023-09-30T05:46:08;111.63;;;7.40;;
23404;SDS011;11875;49.356;2.718;2023-09-30T05:48:34;101.53;;;6.67;;
23404;SDS011;11875;49.356;2.718;2023-09-30T05:50:59;113.77;;;7.60;;
23404;SDS011;11875;49.356;2.718;2023-09-30T05:53:25;88.20;;;6.23;;
23404;SDS011;11875;49.356;2.718;2023-09-30T05:55:52;135.53;;;7.63;;
23404;SDS011;11875;49.356;2.718;2023-09-30T05:58:18;95.40;;;6.10;;
23404;SDS011;11875;49.356;2.718;2023-09-30T06:00:44;93.13;;;6.37;;
23404;SDS011;11875;49.356;2.718;2023-09-30T06:03:10;125.10;;;7.33;;
23404;SDS011;11875;49.356;2.718;2023-09-30T06:05:39;108.20;;;6.53;;
23404;SDS011;11875;49.356;2.718;2023-09-30T06:08:07;179.07;;;9.77;;
23404;SDS011;11875;49.356;2.718;2023-09-30T06:10:39;134.30;;;7.37;;
23404;SDS011;11875;49.356;2.718;2023-09-30T06:13:08;65.13;;;5.23;;
23404;SDS011;11875;49.356;2.718;2023-09-30T06:15:34;148.90;;;7.13;;
23404;SDS011;11875;49.356;2.718;2023-09-30T06:18:06;121.53;;;6.97;;
23404;SDS011;11875;49.356;2.718;2023-09-30T06:20:31;86.60;;;4.93;;
23404;SDS011;11875;49.356;2.718;2023-09-30T06:22:58;64.13;;;5.33;;
23404;SDS011;11875;49.356;2.718;2023-09-30T06:25:25;49.20;;;4.87;;
23404;SDS011;11875;49.356;2.718;2023-09-30T06:27:52;11.73;;;3.23;;
23404;SDS011;11875;49.356;2.718;2023-09-30T06:30:20;15.30;;;4.17;;
23404;SDS011;11875;49.356;2.718;2023-09-30T06:32:46;5.60;;;2.97;;
23404;SDS011;11875;49.356;2.718;2023-09-30T06:35:12;4.33;;;2.50;;
23404;SDS011;11875;49.356;2.718;2023-09-30T06:37:41;5.37;;;2.70;;
23404;SDS011;11875;49.356;2.718;2023-09-30T06:40:07;4.67;;;2.83;;
23404;SDS011;11875;49.356;2.718;2023-09-30T06:42:36;3.47;;;2.33;;
23404;SDS011;11875;49.356;2.718;2023-09-30T06:45:02;3.47;;;2.50;;
23404;SDS011;11875;49.356;2.718;2023-09-30T06:47:34;6.53;;;3.23;;
23404;SDS011;11875;49.356;2.718;2023-09-30T06:50:01;4.40;;;2.37;;
23404;SDS011;11875;49.356;2.718;2023-09-30T06:52:36;4.63;;;2.63;;
23404;SDS011;11875;49.356;2.718;2023-09-30T06:55:03;5.40;;;2.73;;
23404;SDS011;11875;49.356;2.718;2023-09-30T06:57:36;5.80;;;2.67;;
23404;SDS011;11875;49.356;2.718;2023-09-30T07:00:09;4.37;;;2.50;;
23404;SDS011;11875;49.356;2.718;2023-09-30T07:02:37;16.17;;;3.03;;
23404;SDS011;11875;49.356;2.718;2023-09-30T07:05:13;3.50;;;2.40;;
23404;SDS011;11875;49.356;2.718;2023-09-30T07:07:40;9.20;;;3.10;;
23404;SDS011;11875;49.356;2.718;2023-09-30T07:10:10;5.00;;;2.57;;
23404;SDS011;11875;49.356;2.718;2023-09-30T07:12:36;6.17;;;2.70;;
23404;SDS011;11875;49.356;2.718;2023-09-30T07:15:02;7.43;;;2.77;;
23404;SDS011;11875;49.356;2.718;2023-09-30T07:17:29;6.27;;;2.80;;
23404;SDS011;11875;49.356;2.718;2023-09-30T07:19:55;5.43;;;2.80;;
23404;SDS011;11875;49.356;2.718;2023-09-30T07:22:21;6.77;;;3.17;;
23404;SDS011;11875;49.356;2.718;2023-09-30T07:24:47;10.70;;;3.93;;
23404;SDS011;11875;49.356;2.718;2023-09-30T07:27:12;4.67;;;2.80;;
23404;SDS011;11875;49.356;2.718;2023-09-30T07:29:38;8.67;;;3.20;;
23404;SDS011;11875;49.356;2.718;2023-09-30T07:32:04;5.83;;;2.50;;
23404;SDS011;11875;49.356;2.718;2023-09-30T07:34:30;3.87;;;2.50;;
23404;SDS011;11875;49.356;2.718;2023-09-30T07:36:56;4.60;;;2.38;;
23404;SDS011;11875;49.356;2.718;2023-09-30T07:39:21;5.20;;;2.40;;
23404;SDS011;11875;49.356;2.718;2023-09-30T07:41:47;6.60;;;2.15;;
23404;SDS011;11875;49.356;2.718;2023-09-30T07:44:12;6.47;;;2.10;;
23404;SDS011;11875;49.356;2.718;2023-09-30T07:46:38;5.57;;;2.00;;
23404;SDS011;11875;49.356;2.718;2023-09-30T07:49:04;2.88;;;2.55;;
23404;SDS011;11875;49.356;2.718;2023-09-30T07:51:32;3.58;;;2.15;;
23404;SDS011;11875;49.356;2.718;2023-09-30T07:53:57;6.82;;;2.63;;
23404;SDS011;11875;49.356;2.718;2023-09-30T07:56:23;5.40;;;2.80;;
23404;SDS011;11875;49.356;2.718;2023-09-30T07:58:48;7.68;;;2.60;;
23404;SDS011;11875;49.356;2.718;2023-09-30T08:01:14;4.95;;;2.60;;
23404;SDS011;11875;49.356;2.718;2023-09-30T08:03:40;6.70;;;2.53;;
23404;SDS011;11875;49.356;2.718;2023-09-30T08:06:08;5.22;;;2.60;;
23404;SDS011;11875;49.356;2.718;2023-09-30T08:08:35;7.20;;;2.70;;
23404;SDS011;11875;49.356;2.718;2023-09-30T08:11:01;10.23;;;2.97;;
23404;SDS011;11875;49.356;2.718;2023-09-30T08:13:27;5.28;;;2.50;;
23404;SDS011;11875;49.356;2.718;2023-09-30T08:15:54;8.68;;;2.58;;
23404;SDS011;11875;49.356;2.718;2023-09-30T08:18:20;6.63;;;2.90;;
23404;SDS011;11875;49.356;2.718;2023-09-30T08:20:46;4.95;;;2.75;;
23404;SDS011;11875;49.356;2.718;2023-09-30T08:23:12;4.50;;;2.65;;
23404;SDS011;11875;49.356;2.718;2023-09-30T08:25:38;7.72;;;3.10;;
23404;SDS011;11875;49.356;2.718;2023-09-30T08:28:04;5.65;;;2.58;;
23404;SDS011;11875;49.356;2.718;2023-09-30T08:30:30;5.28;;;2.90;;
23404;SDS011;11875;49.356;2.718;2023-09-30T08:32:58;8.52;;;2.83;;
23404;SDS011;11875;49.356;2.718;2023-09-30T08:35:24;5.57;;;2.58;;
23404;SDS011;11875;49.356;2.718;2023-09-30T08:37:49;6.72;;;2.65;;
23404;SDS011;11875;49.356;2.718;2023-09-30T08:40:19;7.32;;;3.50;;
23404;SDS011;11875;49.356;2.718;2023-09-30T08:42:47;5.50;;;2.75;;
23404;SDS011;11875;49.356;2.718;2023-09-30T08:45:16;6.57;;;2.70;;
23404;SDS011;11875;49.356;2.718;2023-09-30T08:47:42;4.80;;;2.83;;
23404;SDS011;11875;49.356;2.718;2023-09-30T08:50:08;9.73;;;3.28;;
23404;SDS011;11875;49.356;2.718;2023-09-30T08:52:35;5.03;;;2.70;;
23404;SDS011;11875;49.356;2.718;2023-09-30T08:55:04;9.25;;;2.60;;
23404;SDS011;11875;49.356;2.718;2023-09-30T08:57:30;6.95;;;2.35;;
23404;SDS011;11875;49.356;2.718;2023-09-30T08:59:56;7.20;;;2.97;;
23404;SDS011;11875;49.356;2.718;2023-09-30T09:02:23;7.30;;;2.90;;
23404;SDS011;11875;49.356;2.718;2023-09-30T09:04:49;11.27;;;3.92;;
23404;SDS011;11875;49.356;2.718;2023-09-30T09:07:14;9.38;;;2.50;;
23404;SDS011;11875;49.356;2.718;2023-09-30T09:09:40;9.10;;;2.65;;
23404;SDS011;11875;49.356;2.718;2023-09-30T09:12:06;9.60;;;3.35;;
23404;SDS011;11875;49.356;2.718;2023-09-30T09:14:43;6.18;;;2.45;;
23404;SDS011;11875;49.356;2.718;2023-09-30T09:17:10;8.25;;;3.03;;
23404;SDS011;11875;49.356;2.718;2023-09-30T09:19:36;14.32;;;3.13;;
23404;SDS011;11875;49.356;2.718;2023-09-30T09:22:02;12.93;;;2.47;;
23404;SDS011;11875;49.356;2.718;2023-09-30T09:24:32;8.25;;;2.53;;
23404;SDS011;11875;49.356;2.718;2023-09-30T09:27:11;13.15;;;2.90;;
23404;SDS011;11875;49.356;2.718;2023-09-30T09:29:39;8.90;;;2.75;;
23404;SDS011;11875;49.356;2.718;2023-09-30T09:34:38;6.95;;;2.63;;
23404;SDS011;11875;49.356;2.718;2023-09-30T09:37:14;7.20;;;2.67;;
23404;SDS011;11875;49.356;2.718;2023-09-30T09:42:28;10.63;;;2.47;;
23404;SDS011;11875;49.356;2.718;2023-09-30T09:44:59;11.30;;;2.47;;
23404;SDS011;11875;49.356;2.718;2023-09-30T09:47:27;9.80;;;3.00;;
23404;SDS011;11875;49.356;2.718;2023-09-30T09:49:56;10.57;;;3.60;;
23404;SDS011;11875;49.356;2.718;2023-09-30T09:52:23;10.38;;;3.10;;
23404;SDS011;11875;49.356;2.718;2023-09-30T09:54:50;12.32;;;2.85;;
23404;SDS011;11875;49.356;2.718;2023-09-30T09:57:17;15.10;;;2.60;;
23404;SDS011;11875;49.356;2.718;2023-09-30T09:59:44;11.00;;;2.88;;
23404;SDS011;11875;49.356;2.718;2023-09-30T10:02:14;8.70;;;2.72;;
23404;SDS011;11875;49.356;2.718;2023-09-30T10:04:42;14.18;;;2.75;;
23404;SDS011;11875;49.356;2.718;2023-09-30T10:07:16;11.57;;;3.25;;
23404;SDS011;11875;49.356;2.718;2023-09-30T10:09:47;17.95;;;3.28;;
23404;SDS011;11875;49.356;2.718;2023-09-30T10:12:16;14.00;;;3.45;;
23404;SDS011;11875;49.356;2.718;2023-09-30T10:14:43;9.27;;;2.40;;
23404;SDS011;11875;49.356;2.718;2023-09-30T10:17:09;7.47;;;2.60;;
23404;SDS011;11875;49.356;2.718;2023-09-30T10:19:35;13.15;;;3.00;;
23404;SDS011;11875;49.356;2.718;2023-09-30T10:24:42;8.07;;;2.88;;
23404;SDS011;11875;49.356;2.718;2023-09-30T10:35:21;8.98;;;2.78;;
23404;SDS011;11875;49.356;2.718;2023-09-30T10:40:51;12.82;;;2.63;;
23404;SDS011;11875;49.356;2.718;2023-09-30T10:43:29;12.77;;;3.10;;
23404;SDS011;11875;49.356;2.718;2023-09-30T10:45:56;8.48;;;2.28;;
23404;SDS011;11875;49.356;2.718;2023-09-30T10:50:59;11.23;;;2.72;;
23404;SDS011;11875;49.356;2.718;2023-09-30T10:53:27;7.93;;;2.70;;
23404;SDS011;11875;49.356;2.718;2023-09-30T10:55:57;11.02;;;2.55;;
23404;SDS011;11875;49.356;2.718;2023-09-30T11:01:12;9.05;;;2.40;;
23404;SDS011;11875;49.356;2.718;2023-09-30T11:03:39;6.93;;;2.15;;
23404;SDS011;11875;49.356;2.718;2023-09-30T11:06:12;12.52;;;2.67;;
23404;SDS011;11875;49.356;2.718;2023-09-30T11:08:55;9.10;;;2.53;;
23404;SDS011;11875;49.356;2.718;2023-09-30T11:17:00;6.22;;;2.40;;
23404;SDS011;11875;49.356;2.718;2023-09-30T11:19:34;7.78;;;2.83;;
23404;SDS011;11875;49.356;2.718;2023-09-30T11:22:20;9.57;;;2.60;;
23404;SDS011;11875;49.356;2.718;2023-09-30T11:24:46;11.07;;;2.70;;
23404;SDS011;11875;49.356;2.718;2023-09-30T11:27:12;11.00;;;2.97;;
23404;SDS011;11875;49.356;2.718;2023-09-30T11:29:47;12.45;;;3.40;;
23404;SDS011;11875;49.356;2.718;2023-09-30T11:32:26;11.85;;;3.33;;
23404;SDS011;11875;49.356;2.718;2023-09-30T11:34:53;13.23;;;3.47;;
23404;SDS011;11875;49.356;2.718;2023-09-30T11:37:20;7.75;;;2.97;;
23404;SDS011;11875;49.356;2.718;2023-09-30T11:39:47;8.93;;;3.00;;
23404;SDS011;11875;49.356;2.718;2023-09-30T11:42:15;12.38;;;3.38;;
23404;SDS011;11875;49.356;2.718;2023-09-30T11:44:45;10.63;;;3.10;;
23404;SDS011;11875;49.356;2.718;2023-09-30T11:47:13;11.18;;;3.53;;
23404;SDS011;11875;49.356;2.718;2023-09-30T11:49:40;9.73;;;3.20;;
23404;SDS011;11875;49.356;2.718;2023-09-30T11:52:10;11.57;;;3.30;;
23404;SDS011;11875;49.356;2.718;2023-09-30T11:57:08;12.38;;;3.55;;
23404;SDS011;11875;49.356;2.718;2023-09-30T11:59:36;9.32;;;3.47;;
23404;SDS011;11875;49.356;2.718;2023-09-30T12:02:03;8.75;;;3.70;;
23404;SDS011;11875;49.356;2.718;2023-09-30T12:04:30;10.38;;;3.97;;
23404;SDS011;11875;49.356;2.718;2023-09-30T12:06:56;13.10;;;4.43;;
23404;SDS011;11875;49.356;2.718;2023-09-30T12:09:23;10.65;;;3.72;;
23404;SDS011;11875;49.356;2.718;2023-09-30T12:11:51;11.68;;;3.53;;
23404;SDS011;11875;49.356;2.718;2023-09-30T12:14:17;15.88;;;4.03;;
23404;SDS011;11875;49.356;2.718;2023-09-30T12:16:42;10.50;;;3.78;;
23404;SDS011;11875;49.356;2.718;2023-09-30T12:19:10;10.10;;;3.92;;
23404;SDS011;11875;49.356;2.718;2023-09-30T12:21:38;14.43;;;4.10;;
23404;SDS011;11875;49.356;2.718;2023-09-30T12:24:05;10.43;;;3.83;;
23404;SDS011;11875;49.356;2.718;2023-09-30T12:26:32;6.95;;;3.33;;
23404;SDS011;11875;49.356;2.718;2023-09-30T12:28:58;13.60;;;4.28;;
23404;SDS011;11875;49.356;2.718;2023-09-30T12:31:24;9.48;;;4.25;;
23404;SDS011;11875;49.356;2.718;2023-09-30T12:33:50;10.93;;;4.10;;
23404;SDS011;11875;49.356;2.718;2023-09-30T12:36:17;12.00;;;3.45;;
23404;SDS011;11875;49.356;2.718;2023-09-30T12:38:43;8.73;;;3.92;;
23404;SDS011;11875;49.356;2.718;2023-09-30T12:41:09;10.25;;;3.60;;
23404;SDS011;11875;49.356;2.718;2023-09-30T12:43:35;8.70;;;3.97;;
23404;SDS011;11875;49.356;2.718;2023-09-30T12:46:02;9.40;;;3.72;;
23404;SDS011;11875;49.356;2.718;2023-09-30T12:48:27;11.63;;;4.15;;
23404;SDS011;11875;49.356;2.718;2023-09-30T12:50:53;13.85;;;3.92;;
23404;SDS011;11875;49.356;2.718;2023-09-30T12:53:18;10.73;;;4.15;;
23404;SDS011;11875;49.356;2.718;2023-09-30T12:55:44;12.93;;;4.25;;
23404;SDS011;11875;49.356;2.718;2023-09-30T12:58:10;10.55;;;4.70;;
23404;SDS011;11875;49.356;2.718;2023-09-30T13:00:36;11.02;;;4.10;;
23404;SDS011;11875;49.356;2.718;2023-09-30T13:03:02;10.30;;;4.50;;
23404;SDS011;11875;49.356;2.718;2023-09-30T13:05:29;8.32;;;4.03;;
23404;SDS011;11875;49.356;2.718;2023-09-30T13:07:54;9.75;;;3.65;;
23404;SDS011;11875;49.356;2.718;2023-09-30T13:10:21;12.73;;;4.30;;
23404;SDS011;11875;49.356;2.718;2023-09-30T13:12:47;10.75;;;4.00;;
23404;SDS011;11875;49.356;2.718;2023-09-30T13:15:18;10.55;;;4.43;;
23404;SDS011;11875;49.356;2.718;2023-09-30T13:17:44;11.57;;;3.90;;
23404;SDS011;11875;49.356;2.718;2023-09-30T13:20:10;9.77;;;4.00;;
23404;SDS011;11875;49.356;2.718;2023-09-30T13:22:37;13.27;;;3.95;;
23404;SDS011;11875;49.356;2.718;2023-09-30T13:25:07;11.07;;;4.57;;
23404;SDS011;11875;49.356;2.718;2023-09-30T13:27:33;20.05;;;4.63;;
23404;SDS011;11875;49.356;2.718;2023-09-30T13:29:59;11.63;;;4.38;;
23404;SDS011;11875;49.356;2.718;2023-09-30T13:32:26;10.82;;;3.78;;
23404;SDS011;11875;49.356;2.718;2023-09-30T13:34:52;12.77;;;4.55;;
23404;SDS011;11875;49.356;2.718;2023-09-30T13:37:17;10.77;;;4.15;;
23404;SDS011;11875;49.356;2.718;2023-09-30T13:39:43;10.73;;;4.40;;
23404;SDS011;11875;49.356;2.718;2023-09-30T13:42:09;11.27;;;4.65;;
23404;SDS011;11875;49.356;2.718;2023-09-30T13:44:34;12.63;;;4.72;;
23404;SDS011;11875;49.356;2.718;2023-09-30T13:47:01;10.68;;;3.80;;
23404;SDS011;11875;49.356;2.718;2023-09-30T13:49:28;13.65;;;4.40;;
23404;SDS011;11875;49.356;2.718;2023-09-30T13:51:53;15.25;;;4.50;;
23404;SDS011;11875;49.356;2.718;2023-09-30T13:54:19;11.98;;;3.92;;
23404;SDS011;11875;49.356;2.718;2023-09-30T13:56:44;10.38;;;4.32;;
23404;SDS011;11875;49.356;2.718;2023-09-30T13:59:10;15.95;;;4.43;;
23404;SDS011;11875;49.356;2.718;2023-09-30T14:01:36;15.63;;;4.38;;
23404;SDS011;11875;49.356;2.718;2023-09-30T14:04:01;13.55;;;5.50;;
23404;SDS011;11875;49.356;2.718;2023-09-30T14:06:29;9.20;;;4.13;;
23404;SDS011;11875;49.356;2.718;2023-09-30T14:08:55;9.80;;;4.03;;
23404;SDS011;11875;49.356;2.718;2023-09-30T14:11:20;10.48;;;3.85;;
23404;SDS011;11875;49.356;2.718;2023-09-30T14:13:46;9.32;;;3.95;;
23404;SDS011;11875;49.356;2.718;2023-09-30T14:16:12;11.48;;;4.43;;
23404;SDS011;11875;49.356;2.718;2023-09-30T14:18:37;13.10;;;4.65;;
23404;SDS011;11875;49.356;2.718;2023-09-30T14:21:04;8.20;;;4.18;;
23404;SDS011;11875;49.356;2.718;2023-09-30T14:23:31;10.40;;;4.25;;
23404;SDS011;11875;49.356;2.718;2023-09-30T14:25:57;10.27;;;4.65;;
23404;SDS011;11875;49.356;2.718;2023-09-30T14:28:24;9.93;;;4.35;;
23404;SDS011;11875;49.356;2.718;2023-09-30T14:30:50;12.00;;;4.30;;
23404;SDS011;11875;49.356;2.718;2023-09-30T14:33:16;9.77;;;4.78;;
23404;SDS011;11875;49.356;2.718;2023-09-30T14:35:42;9.90;;;4.30;;
23404;SDS011;11875;49.356;2.718;2023-09-30T14:38:09;11.43;;;5.43;;
23404;SDS011;11875;49.356;2.718;2023-09-30T14:40:37;11.82;;;4.93;;
23404;SDS011;11875;49.356;2.718;2023-09-30T14:43:07;10.05;;;4.30;;
23404;SDS011;11875;49.356;2.718;2023-09-30T14:45:39;14.15;;;4.75;;
23404;SDS011;11875;49.356;2.718;2023-09-30T14:48:06;9.40;;;4.55;;
23404;SDS011;11875;49.356;2.718;2023-09-30T14:50:32;8.35;;;4.10;;
23404;SDS011;11875;49.356;2.718;2023-09-30T14:52:58;10.98;;;4.47;;
23404;SDS011;11875;49.356;2.718;2023-09-30T14:55:24;13.00;;;4.55;;
23404;SDS011;11875;49.356;2.718;2023-09-30T14:57:49;13.20;;;4.68;;
23404;SDS011;11875;49.356;2.718;2023-09-30T15:00:15;10.85;;;4.05;;
23404;SDS011;11875;49.356;2.718;2023-09-30T15:02:41;11.80;;;4.32;;
23404;SDS011;11875;49.356;2.718;2023-09-30T15:05:07;11.65;;;6.60;;
23404;SDS011;11875;49.356;2.718;2023-09-30T15:07:34;13.13;;;4.43;;
23404;SDS011;11875;49.356;2.718;2023-09-30T15:10:02;9.60;;;4.00;;
23404;SDS011;11875;49.356;2.718;2023-09-30T15:12:29;13.10;;;4.53;;